Time;durP1;ratioP1;P1;durP2;ratioP2;P2;SDS_P1;SDS_P2;PMS_P1;PMS_P2;Temp;Humidity;BMP_temperature;BMP_pressure;BME280_temperature;BME280_humidity;BME280_pressure;Samples;Min_cycle;Max_cycle;Signal;HPM_P1;HPM_P2
2022/11/09 00:01:24;;;;;;;;;;;;;;;;;;5004839;28;8748;-86
2022/11/09 00:03:57;;;;;;;;;;;;;;;;;;5014431;28;8494;-86
2022/11/09 00:06:23;;;;;;;;;;;;;;;;;;5013999;28;7026;-86
2022/11/09 00:08:49;;;;;;;;;;;;;;;;;;5003531;28;8647;-85
2022/11/09 00:11:16;;;;;;;;;;;;;;;;;;5014031;28;9241;-86
2022/11/09 00:13:43;;;;;;;;;;;;;;;;;;5013827;28;8577;-85
2022/11/09 00:16:11;;;;;;;;;;;;;;;;;;5014088;28;7173;-87
2022/11/09 00:18:37;;;;;;;;;;;;;;;;;;5013777;28;8323;-86
2022/11/09 00:21:11;;;;;;;;;;;;;;;;;;5004742;28;8337;-86
2022/11/09 00:23:37;;;;;;;;;;;;;;;;;;4994073;28;7092;-85
2022/11/09 00:26:07;;;;;;;;;;;;;;;;;;4994868;28;8455;-86
2022/11/09 00:28:33;;;;;;;;;;;;;;;;;;4994112;28;8487;-86
2022/11/09 00:30:59;;;;;;;;;;;;;;;;;;4997018;28;8446;-87
2022/11/09 00:33:24;;;;;;;;;;;;;;;;;;5000309;28;7300;-86
2022/11/09 00:35:50;;;;;;;;;;;;;;;;;;5000651;28;7139;-86
2022/11/09 00:38:15;;;;;;;;;;;;;;;;;;5000455;28;8468;-86
2022/11/09 00:40:40;;;;;;;;;;;;;;;;;;5000154;28;7340;-86
2022/11/09 00:43:06;;;;;;;;;;;;;;;;;;5000397;28;8104;-86
2022/11/09 00:45:32;;;;;;;;;;;;;;;;;;5000298;28;8321;-86
2022/11/09 00:47:57;;;;;;;;;;;;;;;;;;5000568;28;8406;-86
2022/11/09 00:50:23;;;;;;;;;;;;;;;;;;5000571;28;8403;-86
2022/11/09 00:52:48;;;;;;;;;;;;;;;;;;5000472;28;7266;-86
2022/11/09 00:55:14;;;;;;;;;;;;;;;;;;5000965;28;7133;-87
2022/11/09 00:57:39;;;;;;;;;;;;;;;;;;5000764;28;7259;-86
2022/11/09 01:00:05;;;;;;;;;;;;;;;;;;5000610;28;8393;-85
2022/11/09 01:02:31;;;;;;;;;;;;;;;;;;5000387;28;8549;-86
2022/11/09 01:04:58;;;;;;;;;;;;;;;;;;5000875;28;8357;-86
2022/11/09 01:07:24;;;;;;;;;;;;;;;;;;5000125;28;8480;-86
2022/11/09 01:09:50;;;;;;;;;;;;;;;;;;5001346;28;7137;-86
2022/11/09 01:12:15;;;;;;;;;;;;;;;;;;5000675;28;7100;-86
2022/11/09 01:14:41;;;;;;;;;;;;;;;;;;5000679;28;7128;-86
2022/11/09 01:17:06;;;;;;;;;;;;;;;;;;5000356;28;8496;-86
2022/11/09 01:19:32;;;;;;;;;;;;;;;;;;5000492;28;8757;-86
2022/11/09 01:21:57;;;;;;;;;;;;;;;;;;5009395;28;7161;-87
2022/11/09 01:24:23;;;;;;;;;;;;;;;;;;5000351;28;7037;-85
2022/11/09 01:26:48;;;;;;;;;;;;;;;;;;5001869;28;8427;-87
2022/11/09 01:29:14;;;;;;;;;;;;;;;;;;5000244;28;8416;-85
2022/11/09 01:31:39;;;;;;;;;;;;;;;;;;5000730;28;8469;-86
2022/11/09 01:34:05;;;;;;;;;;;;;;;;;;5000321;28;8659;-85
2022/11/09 01:36:30;;;;;;;;;;;;;;;;;;5000406;28;8272;-85
2022/11/09 01:38:56;;;;;;;;;;;;;;;;;;5000183;28;8391;-86
2022/11/09 01:41:24;;;;;;;;;;;;;;;;;;5000024;28;8417;-86
2022/11/09 01:44:06;;;;;;;;;;;;;;;;;;4996578;28;8563;-86
2022/11/09 01:46:40;;;;;;;;;;;;;;;;;;4997698;28;7182;-85
2022/11/09 01:49:12;;;;;;;;;;;;;;;;;;4996978;28;8279;-86
2022/11/09 01:51:45;;;;;;;;;;;;;;;;;;4997294;28;8616;-86
2022/11/09 01:54:17;;;;;;;;;;;;;;;;;;4997376;28;7038;-86
2022/11/09 01:56:45;;;;;;;;;;;;;;;;;;4997410;28;8709;-85
2022/11/09 01:59:15;;;;;;;;;;;;;;;;;;4997849;28;7414;-86
2022/11/09 02:01:42;;;;;;;;;;;;;;;;;;4998124;28;7031;-86
2022/11/09 02:04:30;;;;;;;;;;;;;;;;;;4998201;28;7133;-86
2022/11/09 02:06:57;;;;;;;;;;;;;;;;;;4998703;28;8883;-87
2022/11/09 02:09:36;;;;;;;;;;;;;;;;;;4997652;28;8825;-86
2022/11/09 02:12:02;;;;;;;;;;;;;;;;;;4997327;28;8493;-85
2022/11/09 02:14:29;;;;;;;;;;;;;;;;;;4997218;28;7171;-87
2022/11/09 02:16:55;;;;;;;;;;;;;;;;;;4996770;28;7238;-87
2022/11/09 02:19:21;;;;;;;;;;;;;;;;;;4996235;28;8499;-85
2022/11/09 02:21:47;;;;;;;;;;;;;;;;;;5002223;28;7121;-86
2022/11/09 02:24:12;;;;;;;;;;;;;;;;;;4996446;28;8753;-86
2022/11/09 02:26:42;;;;;;;;;;;;;;;;;;4996122;28;9014;-86
2022/11/09 02:29:10;;;;;;;;;;;;;;;;;;4996605;28;8494;-86
2022/11/09 02:31:38;;;;;;;;;;;;;;;;;;4995931;28;7215;-86
2022/11/09 02:34:16;;;;;;;;;;;;;;;;;;4995911;28;8755;-86
2022/11/09 02:36:42;;;;;;;;;;;;;;;;;;4995896;28;8721;-85
2022/11/09 02:39:08;;;;;;;;;;;;;;;;;;4995610;28;7128;-85
2022/11/09 02:41:40;;;;;;;;;;;;;;;;;;4996035;28;7153;-86
2022/11/09 02:44:05;;;;;;;;;;;;;;;;;;4996551;28;7032;-86
2022/11/09 02:46:32;;;;;;;;;;;;;;;;;;4996139;28;8981;-86
2022/11/09 02:48:59;;;;;;;;;;;;;;;;;;4996388;28;7039;-86
2022/11/09 02:51:25;;;;;;;;;;;;;;;;;;4995942;28;7103;-86
2022/11/09 02:53:51;;;;;;;;;;;;;;;;;;4995574;28;8595;-86
2022/11/09 02:56:16;;;;;;;;;;;;;;;;;;4995834;28;6832;-86
2022/11/09 02:58:42;;;;;;;;;;;;;;;;;;4995483;28;7230;-86
2022/11/09 03:01:07;;;;;;;;;;;;;;;;;;4996019;28;7225;-86
2022/11/09 03:03:33;;;;;;;;;;;;;;;;;;4995453;28;8304;-85
2022/11/09 03:05:59;;;;;;;;;;;;;;;;;;4995382;28;8466;-85
2022/11/09 03:08:24;;;;;;;;;;;;;;;;;;4996066;28;9319;-85
2022/11/09 03:10:49;;;;;;;;;;;;;;;;;;4995292;28;8374;-86
2022/11/09 03:13:15;;;;;;;;;;;;;;;;;;4995279;28;7019;-86
2022/11/09 03:15:40;;;;;;;;;;;;;;;;;;4995808;28;8459;-85
2022/11/09 03:18:06;;;;;;;;;;;;;;;;;;4995708;28;6961;-86
2022/11/09 03:20:32;;;;;;;;;;;;;;;;;;5000773;28;8574;-86
2022/11/09 03:22:58;;;;;;;;;;;;;;;;;;5015479;28;7304;-85
2022/11/09 03:25:24;;;;;;;;;;;;;;;;;;4995187;28;7115;-85
2022/11/09 03:27:50;;;;;;;;;;;;;;;;;;4995160;28;7045;-87
2022/11/09 03:30:17;;;;;;;;;;;;;;;;;;4995564;28;8388;-86
2022/11/09 03:32:44;;;;;;;;;;;;;;;;;;4994793;28;8384;-86
2022/11/09 03:35:09;;;;;;;;;;;;;;;;;;4994762;28;8406;-86
2022/11/09 03:37:35;;;;;;;;;;;;;;;;;;4995340;28;7211;-86
2022/11/09 03:40:00;;;;;;;;;;;;;;;;;;4994962;28;8493;-86
2022/11/09 03:42:25;;;;;;;;;;;;;;;;;;4994975;28;8401;-86
2022/11/09 03:44:51;;;;;;;;;;;;;;;;;;4994710;28;8516;-85
2022/11/09 03:47:16;;;;;;;;;;;;;;;;;;4994776;28;8417;-86
2022/11/09 03:49:42;;;;;;;;;;;;;;;;;;4997946;28;7043;-85
2022/11/09 03:52:07;;;;;;;;;;;;;;;;;;5013864;28;8449;-85
2022/11/09 03:54:33;;;;;;;;;;;;;;;;;;5013944;28;8268;-86
2022/11/09 03:56:58;;;;;;;;;;;;;;;;;;5014176;28;7023;-86
2022/11/09 03:59:23;;;;;;;;;;;;;;;;;;5013994;28;7186;-85
2022/11/09 04:01:49;;;;;;;;;;;;;;;;;;5013679;28;8498;-86
2022/11/09 04:04:14;;;;;;;;;;;;;;;;;;5014250;28;8416;-85
2022/11/09 04:06:40;;;;;;;;;;;;;;;;;;5013244;28;8880;-85
2022/11/09 04:09:05;;;;;;;;;;;;;;;;;;5013819;28;7225;-86
2022/11/09 04:11:31;;;;;;;;;;;;;;;;;;5013730;28;7119;-85
2022/11/09 04:13:56;;;;;;;;;;;;;;;;;;5013679;28;8718;-86
2022/11/09 04:16:22;;;;;;;;;;;;;;;;;;5014113;28;9429;-87
2022/11/09 04:18:48;;;;;;;;;;;;;;;;;;5014151;28;8857;-86
2022/11/09 04:21:13;;;;;;;;;;;;;;;;;;5013126;28;8435;-85
2022/11/09 04:23:39;;;;;;;;;;;;;;;;;;5013712;28;9763;-86
2022/11/09 04:26:04;;;;;;;;;;;;;;;;;;5013959;28;8428;-85
2022/11/09 04:28:30;;;;;;;;;;;;;;;;;;5013625;28;7023;-86
2022/11/09 04:30:58;;;;;;;;;;;;;;;;;;5013993;28;7148;-86
2022/11/09 04:33:24;;;;;;;;;;;;;;;;;;5013413;28;8445;-86
2022/11/09 04:35:50;;;;;;;;;;;;;;;;;;5013978;28;8678;-85
2022/11/09 04:38:15;;;;;;;;;;;;;;;;;;5013543;28;8423;-85
2022/11/09 04:40:41;;;;;;;;;;;;;;;;;;5013860;28;7047;-85
2022/11/09 04:43:10;;;;;;;;;;;;;;;;;;5014380;28;8496;-86
2022/11/09 04:45:35;;;;;;;;;;;;;;;;;;5013478;28;7102;-86
2022/11/09 04:48:02;;;;;;;;;;;;;;;;;;5013945;28;7017;-85
2022/11/09 04:50:28;;;;;;;;;;;;;;;;;;5013227;28;8356;-85
2022/11/09 04:52:54;;;;;;;;;;;;;;;;;;5013566;28;8313;-85
2022/11/09 04:55:20;;;;;;;;;;;;;;;;;;5013381;28;8635;-86
2022/11/09 04:57:45;;;;;;;;;;;;;;;;;;5013884;28;7164;-86
2022/11/09 05:00:12;;;;;;;;;;;;;;;;;;5013528;28;7134;-84
2022/11/09 05:02:37;;;;;;;;;;;;;;;;;;5013178;28;8508;-85
2022/11/09 05:05:03;;;;;;;;;;;;;;;;;;5013278;28;7165;-86
2022/11/09 05:07:28;;;;;;;;;;;;;;;;;;5013575;28;6905;-86
2022/11/09 05:09:53;;;;;;;;;;;;;;;;;;5014532;28;8441;-85
2022/11/09 05:12:19;;;;;;;;;;;;;;;;;;5013852;28;8430;-86
2022/11/09 05:14:44;;;;;;;;;;;;;;;;;;5013341;28;8391;-86
2022/11/09 05:17:10;;;;;;;;;;;;;;;;;;5014045;28;7034;-85
2022/11/09 05:19:35;;;;;;;;;;;;;;;;;;5015785;28;7248;-85
2022/11/09 05:23:57;;;;;;;;;;;;;;;;;;5007677;28;7166;-86
2022/11/09 05:24:46;;;;;;;;;;;;;;;;;;4998696;28;7246;-86
2022/11/09 05:27:11;;;;;;;;;;;;;;;;;;5012850;28;7819;-85
2022/11/09 05:29:37;;;;;;;;;;;;;;;;;;5016858;28;8386;-85
2022/11/09 05:32:02;;;;;;;;;;;;;;;;;;5015613;28;7786;-87
2022/11/09 05:34:28;;;;;;;;;;;;;;;;;;4997505;28;8349;-86
2022/11/09 05:36:53;;;;;;;;;;;;;;;;;;4997033;28;8307;-86
2022/11/09 05:39:19;;;;;;;;;;;;;;;;;;4997877;28;8397;-86
2022/11/09 05:41:44;;;;;;;;;;;;;;;;;;4996900;28;8478;-85
2022/11/09 05:44:10;;;;;;;;;;;;;;;;;;4997135;28;8839;-86
2022/11/09 05:46:35;;;;;;;;;;;;;;;;;;4996789;28;7338;-86
2022/11/09 05:49:01;;;;;;;;;;;;;;;;;;4996902;28;8420;-86
2022/11/09 05:51:26;;;;;;;;;;;;;;;;;;4997098;28;7247;-85
2022/11/09 05:53:52;;;;;;;;;;;;;;;;;;4996777;28;6995;-86
2022/11/09 05:56:17;;;;;;;;;;;;;;;;;;4997207;28;8327;-85
2022/11/09 05:58:43;;;;;;;;;;;;;;;;;;4996950;28;8742;-86
2022/11/09 06:01:11;;;;;;;;;;;;;;;;;;4996462;28;7210;-85
2022/11/09 06:03:37;;;;;;;;;;;;;;;;;;4996531;28;8358;-86
2022/11/09 06:06:04;;;;;;;;;;;;;;;;;;4997536;28;7045;-86
2022/11/09 06:08:29;;;;;;;;;;;;;;;;;;4996824;28;7166;-85
2022/11/09 06:10:59;;;;;;;;;;;;;;;;;;5000194;28;8472;-86
2022/11/09 06:13:25;;;;;;;;;;;;;;;;;;5012783;28;7042;-85
2022/11/09 06:15:52;;;;;;;;;;;;;;;;;;4996657;28;8734;-86
2022/11/09 06:18:17;;;;;;;;;;;;;;;;;;4996773;28;9235;-86
2022/11/09 06:20:43;;;;;;;;;;;;;;;;;;4996440;28;7020;-87
2022/11/09 06:23:08;;;;;;;;;;;;;;;;;;4998061;28;8407;-86
2022/11/09 06:25:34;;;;;;;;;;;;;;;;;;5016077;28;8474;-86
2022/11/09 06:28:00;;;;;;;;;;;;;;;;;;4996292;28;7131;-85
2022/11/09 06:30:25;;;;;;;;;;;;;;;;;;4996064;28;6990;-85
2022/11/09 06:32:51;;;;;;;;;;;;;;;;;;4996572;28;7130;-86
2022/11/09 06:35:16;;;;;;;;;;;;;;;;;;4995815;28;8408;-85
2022/11/09 06:37:41;;;;;;;;;;;;;;;;;;5009385;28;7116;-85
2022/11/09 06:40:07;;;;;;;;;;;;;;;;;;5007868;28;8318;-86
2022/11/09 06:42:33;;;;;;;;;;;;;;;;;;4995758;28;8287;-86
2022/11/09 06:44:58;;;;;;;;;;;;;;;;;;5012680;28;7335;-82
2022/11/09 06:47:23;;;;;;;;;;;;;;;;;;5015646;28;7022;-82
2022/11/09 06:49:49;;;;;;;;;;;;;;;;;;5005690;28;8393;-87
2022/11/09 06:52:14;;;;;;;;;;;;;;;;;;4995975;28;8498;-88
2022/11/09 06:54:40;;;;;;;;;;;;;;;;;;4995387;28;8434;-88
2022/11/09 06:57:05;;;;;;;;;;;;;;;;;;5002583;28;8421;-88
2022/11/09 06:59:31;;;;;;;;;;;;;;;;;;5012389;28;8365;-88
2022/11/09 07:01:56;;;;;;;;;;;;;;;;;;4995128;28;8402;-88
2022/11/09 07:04:22;;;;;;;;;;;;;;;;;;4995046;28;7056;-88
2022/11/09 07:06:47;;;;;;;;;;;;;;;;;;4996574;28;8395;-88
2022/11/09 07:09:13;;;;;;;;;;;;;;;;;;4995328;28;8587;-88
2022/11/09 07:11:38;;;;;;;;;;;;;;;;;;4995284;28;7458;-88
2022/11/09 07:14:04;;;;;;;;;;;;;;;;;;4995265;28;7082;-88
2022/11/09 07:16:30;;;;;;;;;;;;;;;;;;4995261;28;7020;-88
2022/11/09 07:18:56;;;;;;;;;;;;;;;;;;4994959;28;7036;-88
2022/11/09 07:21:21;;;;;;;;;;;;;;;;;;4998198;28;7003;-89
2022/11/09 07:23:47;;;;;;;;;;;;;;;;;;4995493;28;8723;-88
2022/11/09 07:26:13;;;;;;;;;;;;;;;;;;4995814;28;8310;-90
2022/11/09 07:28:38;;;;;;;;;;;;;;;;;;5008342;28;8320;-85
2022/11/09 07:31:04;;;;;;;;;;;;;;;;;;4997295;28;8471;-89
2022/11/09 07:33:31;;;;;;;;;;;;;;;;;;4994706;28;8353;-89
2022/11/09 07:35:58;;;;;;;;;;;;;;;;;;4994713;28;7172;-89
2022/11/09 07:38:24;;;;;;;;;;;;;;;;;;4996086;28;8327;-89
2022/11/09 07:40:49;;;;;;;;;;;;;;;;;;4997146;28;7169;-88
2022/11/09 07:43:16;;;;;;;;;;;;;;;;;;4994732;28;7180;-88
2022/11/09 07:45:42;;;;;;;;;;;;;;;;;;4994964;28;8330;-88
2022/11/09 07:48:09;;;;;;;;;;;;;;;;;;5001489;28;7042;-89
2022/11/09 07:50:36;;;;;;;;;;;;;;;;;;5020861;28;8357;-89
2022/11/09 07:53:02;;;;;;;;;;;;;;;;;;4994511;28;7033;-88
2022/11/09 07:55:29;;;;;;;;;;;;;;;;;;4997459;28;7326;-89
2022/11/09 07:57:58;;;;;;;;;;;;;;;;;;5005495;28;8427;-88
2022/11/09 08:00:25;;;;;;;;;;;;;;;;;;5014000;28;7080;-88
2022/11/09 08:02:50;;;;;;;;;;;;;;;;;;5014142;28;8775;-88
2022/11/09 08:05:17;;;;;;;;;;;;;;;;;;5013958;28;7453;-88
2022/11/09 08:07:42;;;;;;;;;;;;;;;;;;5014173;28;7288;-88
2022/11/09 08:10:08;;;;;;;;;;;;;;;;;;5014320;28;8619;-88
2022/11/09 08:12:34;;;;;;;;;;;;;;;;;;5013810;28;7036;-88
2022/11/09 08:14:59;;;;;;;;;;;;;;;;;;5013776;28;8943;-88
2022/11/09 08:17:25;;;;;;;;;;;;;;;;;;5013758;28;7217;-88
2022/11/09 08:19:50;;;;;;;;;;;;;;;;;;5013708;28;7044;-88
2022/11/09 08:22:16;;;;;;;;;;;;;;;;;;5013763;28;8455;-88
2022/11/09 08:24:41;;;;;;;;;;;;;;;;;;5014063;28;8772;-89
2022/11/09 08:27:07;;;;;;;;;;;;;;;;;;5013604;28;7046;-88
2022/11/09 08:29:33;;;;;;;;;;;;;;;;;;5014922;28;7044;-88
2022/11/09 08:31:58;;;;;;;;;;;;;;;;;;5013737;28;8366;-88
2022/11/09 08:34:24;;;;;;;;;;;;;;;;;;5013262;28;8327;-88
2022/11/09 08:36:49;;;;;;;;;;;;;;;;;;5013570;28;7172;-88
2022/11/09 08:39:15;;;;;;;;;;;;;;;;;;5013946;28;8467;-88
2022/11/09 08:41:40;;;;;;;;;;;;;;;;;;5013932;28;8435;-88
2022/11/09 08:44:06;;;;;;;;;;;;;;;;;;5015027;28;7620;-88
2022/11/09 08:46:32;;;;;;;;;;;;;;;;;;5014023;28;8831;-88
2022/11/09 08:48:57;;;;;;;;;;;;;;;;;;5014789;28;7042;-88
2022/11/09 08:51:22;;;;;;;;;;;;;;;;;;5015328;28;8728;-88
2022/11/09 08:53:48;;;;;;;;;;;;;;;;;;5017620;28;7156;-88
2022/11/09 08:56:17;;;;;;;;;;;;;;;;;;5012205;28;7487;-89
2022/11/09 08:58:43;;;;;;;;;;;;;;;;;;5004248;28;7070;-89
2022/11/09 09:01:10;;;;;;;;;;;;;;;;;;5008644;28;7324;-90
2022/11/09 09:03:36;;;;;;;;;;;;;;;;;;4998979;28;8691;-89
2022/11/09 09:06:06;;;;;;;;;;;;;;;;;;5006280;28;8570;-89
2022/11/09 09:08:32;;;;;;;;;;;;;;;;;;5016080;28;9183;-89
2022/11/09 09:11:04;;;;;;;;;;;;;;;;;;5016418;28;7184;-89
2022/11/09 09:13:31;;;;;;;;;;;;;;;;;;5018162;28;7286;-89
2022/11/09 09:15:56;;;;;;;;;;;;;;;;;;5006542;28;8489;-90
2022/11/09 09:18:22;;;;;;;;;;;;;;;;;;5023624;28;8725;-89
2022/11/09 09:20:47;;;;;;;;;;;;;;;;;;5003822;28;7098;-89
2022/11/09 09:23:14;;;;;;;;;;;;;;;;;;4999278;28;7050;-89
2022/11/09 09:25:39;;;;;;;;;;;;;;;;;;4999654;28;8372;-89
2022/11/09 09:28:05;;;;;;;;;;;;;;;;;;4998237;28;7168;-90
2022/11/09 09:30:30;;;;;;;;;;;;;;;;;;4997626;28;8673;-90
2022/11/09 09:32:57;;;;;;;;;;;;;;;;;;4997578;28;7176;-89
2022/11/09 09:35:22;;;;;;;;;;;;;;;;;;4997517;28;8333;-90
2022/11/09 09:37:47;;;;;;;;;;;;;;;;;;4996964;28;7285;-89
2022/11/09 09:40:39;;;;;;;;;;;;;;;;;;5011537;28;7233;-89
2022/11/09 09:43:04;;;;;;;;;;;;;;;;;;5030042;28;7084;-90
2022/11/09 09:45:34;;;;;;;;;;;;;;;;;;5027155;28;8457;-90
2022/11/09 09:48:17;;;;;;;;;;;;;;;;;;5011176;28;8758;-87
2022/11/09 09:50:50;;;;;;;;;;;;;;;;;;5013019;28;7086;-85
2022/11/09 09:53:23;;;;;;;;;;;;;;;;;;4997920;28;8316;-90
2022/11/09 09:56:04;;;;;;;;;;;;;;;;;;5008596;28;7173;-90
2022/11/09 09:58:32;;;;;;;;;;;;;;;;;;5003837;28;8818;-90
2022/11/09 10:01:10;;;;;;;;;;;;;;;;;;5002777;28;8740;-90
2022/11/09 10:03:36;;;;;;;;;;;;;;;;;;5027567;28;8435;-91
2022/11/09 10:06:20;;;;;;;;;;;;;;;;;;5012786;28;8312;-91
2022/11/09 10:08:54;;;;;;;;;;;;;;;;;;4996649;28;8376;-91
2022/11/09 10:11:28;;;;;;;;;;;;;;;;;;5002024;28;8364;-90
2022/11/09 10:14:26;;;;;;;;;;;;;;;;;;4996220;28;7082;-91
2022/11/09 10:17:04;;;;;;;;;;;;;;;;;;4962427;28;8697;-90
2022/11/09 10:19:38;;;;;;;;;;;;;;;;;;5016277;28;8435;-90
2022/11/09 10:22:22;;;;;;;;;;;;;;;;;;5015964;28;8456;-92
2022/11/09 10:24:55;;;;;;;;;;;;;;;;;;5016260;28;8519;-89
2022/11/09 10:27:24;;;;;;;;;;;;;;;;;;5017556;28;8363;-90
2022/11/09 10:29:50;;;;;;;;;;;;;;;;;;5016753;28;7093;-89
2022/11/09 10:32:17;;;;;;;;;;;;;;;;;;5016149;28;7234;-91
2022/11/09 10:34:51;;;;;;;;;;;;;;;;;;5017585;28;7052;-89
2022/11/09 10:37:21;;;;;;;;;;;;;;;;;;5016250;28;8457;-91
2022/11/09 10:40:11;;;;;;;;;;;;;;;;;;5016713;28;7349;-92
2022/11/09 10:42:37;;;;;;;;;;;;;;;;;;5016134;28;8383;-91
2022/11/09 10:45:17;;;;;;;;;;;;;;;;;;5016515;28;8431;-91
2022/11/09 10:47:47;;;;;;;;;;;;;;;;;;5016446;28;6915;-92
2022/11/09 10:50:13;;;;;;;;;;;;;;;;;;5013092;28;8726;-92
2022/11/09 10:52:38;;;;;;;;;;;;;;;;;;5007251;28;8733;-91
2022/11/09 10:55:22;;;;;;;;;;;;;;;;;;5000378;28;7414;-91
2022/11/09 10:58:10;;;;;;;;;;;;;;;;;;5006385;28;7157;-91
2022/11/09 11:00:37;;;;;;;;;;;;;;;;;;4996222;28;8703;-90
2022/11/09 11:03:16;;;;;;;;;;;;;;;;;;5012363;28;8821;-91
2022/11/09 11:05:42;;;;;;;;;;;;;;;;;;5013552;28;6866;-90
2022/11/09 11:08:19;;;;;;;;;;;;;;;;;;5006302;28;7055;-87
2022/11/09 11:10:45;;;;;;;;;;;;;;;;;;5015442;28;8487;-90
2022/11/09 11:13:10;;;;;;;;;;;;;;;;;;5014808;28;8414;-89
2022/11/09 11:15:41;;;;;;;;;;;;;;;;;;5014346;28;8663;-91
2022/11/09 11:18:32;;;;;;;;;;;;;;;;;;5015216;28;7060;-89
2022/11/09 11:21:15;;;;;;;;;;;;;;;;;;5028877;28;8386;-91
2022/11/09 11:23:40;;;;;;;;;;;;;;;;;;5020858;28;7170;-89
2022/11/09 11:26:16;;;;;;;;;;;;;;;;;;5007347;28;7407;-84
2022/11/09 11:28:48;;;;;;;;;;;;;;;;;;5014723;28;8409;-87
2022/11/09 11:31:16;;;;;;;;;;;;;;;;;;5014994;28;8251;-90
2022/11/09 11:33:42;;;;;;;;;;;;;;;;;;5014591;28;7222;-90
2022/11/09 11:36:10;;;;;;;;;;;;;;;;;;5014838;28;7001;-90
2022/11/09 11:38:48;;;;;;;;;;;;;;;;;;5014801;28;8420;-89
2022/11/09 11:41:14;;;;;;;;;;;;;;;;;;5015128;28;7100;-90
2022/11/09 11:43:58;;;;;;;;;;;;;;;;;;5014234;28;8427;-89
2022/11/09 11:46:33;;;;;;;;;;;;;;;;;;5014141;28;7168;-89
2022/11/09 11:49:12;;;;;;;;;;;;;;;;;;5014691;28;8725;-88
2022/11/09 11:52:01;;;;;;;;;;;;;;;;;;5014950;28;7053;-89
2022/11/09 11:54:49;;;;;;;;;;;;;;;;;;5014414;28;8300;-90
2022/11/09 11:57:18;;;;;;;;;;;;;;;;;;5013235;28;7328;-89
2022/11/09 11:59:43;;;;;;;;;;;;;;;;;;5014385;28;8422;-90
2022/11/09 12:02:21;;;;;;;;;;;;;;;;;;5014125;28;8740;-89
2022/11/09 12:05:05;;;;;;;;;;;;;;;;;;5014842;28;8329;-89
2022/11/09 12:07:43;;;;;;;;;;;;;;;;;;5014152;28;8363;-89
2022/11/09 12:10:27;;;;;;;;;;;;;;;;;;5014055;28;8447;-89
2022/11/09 12:13:07;;;;;;;;;;;;;;;;;;5013925;28;7464;-89
2022/11/09 12:15:42;;;;;;;;;;;;;;;;;;5014169;28;8939;-90
2022/11/09 12:18:15;;;;;;;;;;;;;;;;;;5011239;28;7063;-90
2022/11/09 12:20:55;;;;;;;;;;;;;;;;;;5011276;28;7172;-90
2022/11/09 12:23:21;;;;;;;;;;;;;;;;;;5012056;28;8541;-89
2022/11/09 12:25:49;;;;;;;;;;;;;;;;;;5001435;28;7193;-90
2022/11/09 12:28:30;;;;;;;;;;;;;;;;;;5015573;28;8545;-89
2022/11/09 12:31:14;;;;;;;;;;;;;;;;;;4999959;28;9392;-88
2022/11/09 12:33:55;;;;;;;;;;;;;;;;;;4994292;28;8897;-88
2022/11/09 12:36:34;;;;;;;;;;;;;;;;;;4994241;28;8474;-88
2022/11/09 12:39:19;;;;;;;;;;;;;;;;;;4994052;28;7459;-89
2022/11/09 12:41:47;;;;;;;;;;;;;;;;;;4994100;28;7424;-89
2022/11/09 12:44:22;;;;;;;;;;;;;;;;;;4994111;28;8369;-89
2022/11/09 12:46:51;;;;;;;;;;;;;;;;;;4994383;28;8401;-88
2022/11/09 12:49:29;;;;;;;;;;;;;;;;;;4994240;28;8365;-89
2022/11/09 12:51:55;;;;;;;;;;;;;;;;;;4994279;28;8458;-88
2022/11/09 12:54:22;;;;;;;;;;;;;;;;;;4993876;28;8406;-88
2022/11/09 12:56:54;;;;;;;;;;;;;;;;;;4993860;28;8430;-89
2022/11/09 12:59:20;;;;;;;;;;;;;;;;;;4994007;28;7208;-88
2022/11/09 13:01:50;;;;;;;;;;;;;;;;;;5010489;28;8686;-89
2022/11/09 13:04:18;;;;;;;;;;;;;;;;;;4994146;28;8329;-89
2022/11/09 13:07:03;;;;;;;;;;;;;;;;;;4993596;28;7058;-89
2022/11/09 13:09:29;;;;;;;;;;;;;;;;;;4993446;28;8492;-89
2022/11/09 13:11:55;;;;;;;;;;;;;;;;;;4993774;28;7335;-90
2022/11/09 13:14:20;;;;;;;;;;;;;;;;;;4993955;28;7282;-90
2022/11/09 13:16:50;;;;;;;;;;;;;;;;;;5010420;28;8435;-90
2022/11/09 13:19:34;;;;;;;;;;;;;;;;;;4993499;28;8796;-88
2022/11/09 13:22:22;;;;;;;;;;;;;;;;;;5002668;28;8721;-89
2022/11/09 13:24:58;;;;;;;;;;;;;;;;;;4967717;28;7312;-89
2022/11/09 13:27:42;;;;;;;;;;;;;;;;;;5004268;28;7101;-89
2022/11/09 13:30:23;;;;;;;;;;;;;;;;;;5013630;28;7071;-89
2022/11/09 13:33:01;;;;;;;;;;;;;;;;;;5011532;28;7258;-88
2022/11/09 13:35:38;;;;;;;;;;;;;;;;;;5004603;28;8331;-88
2022/11/09 13:38:13;;;;;;;;;;;;;;;;;;5013105;28;8177;-88
2022/11/09 13:40:40;;;;;;;;;;;;;;;;;;5017138;28;8527;-89
2022/11/09 13:43:09;;;;;;;;;;;;;;;;;;5017445;28;7172;-88
2022/11/09 13:45:40;;;;;;;;;;;;;;;;;;5016551;28;7274;-88
2022/11/09 13:48:21;;;;;;;;;;;;;;;;;;5008967;28;8322;-88
2022/11/09 13:50:52;;;;;;;;;;;;;;;;;;5013593;28;8454;-78
2022/11/09 13:53:27;;;;;;;;;;;;;;;;;;5010892;28;8429;-83
2022/11/09 13:55:53;;;;;;;;;;;;;;;;;;5010892;28;8469;-84
2022/11/09 13:58:28;;;;;;;;;;;;;;;;;;5001975;28;8553;-89
2022/11/09 14:00:53;;;;;;;;;;;;;;;;;;5009934;28;8751;-88
2022/11/09 14:03:24;;;;;;;;;;;;;;;;;;5023292;28;7028;-88
2022/11/09 14:05:55;;;;;;;;;;;;;;;;;;5020669;28;8362;-89
2022/11/09 14:08:27;;;;;;;;;;;;;;;;;;5013399;28;7154;-90
2022/11/09 14:11:03;;;;;;;;;;;;;;;;;;5012457;28;7078;-88
2022/11/09 14:13:35;;;;;;;;;;;;;;;;;;5014245;28;8470;-88
2022/11/09 14:16:06;;;;;;;;;;;;;;;;;;5013818;28;8522;-88
2022/11/09 14:18:50;;;;;;;;;;;;;;;;;;5015588;28;8530;-88
2022/11/09 14:21:34;;;;;;;;;;;;;;;;;;5016089;28;8467;-88
2022/11/09 14:24:13;;;;;;;;;;;;;;;;;;5015740;28;7068;-87
2022/11/09 14:26:38;;;;;;;;;;;;;;;;;;5016575;28;8438;-89
2022/11/09 14:29:19;;;;;;;;;;;;;;;;;;5014208;28;8433;-88
2022/11/09 14:31:45;;;;;;;;;;;;;;;;;;5012282;28;8529;-88
2022/11/09 14:34:13;;;;;;;;;;;;;;;;;;5015598;28;7039;-88
2022/11/09 14:36:40;;;;;;;;;;;;;;;;;;5009758;28;7061;-87
2022/11/09 14:39:19;;;;;;;;;;;;;;;;;;4997390;28;8507;-87
2022/11/09 14:41:45;;;;;;;;;;;;;;;;;;5007532;28;8661;-86
2022/11/09 14:44:28;;;;;;;;;;;;;;;;;;5012943;28;7068;-86
2022/11/09 14:46:55;;;;;;;;;;;;;;;;;;5015287;28;8790;-86
2022/11/09 14:49:24;;;;;;;;;;;;;;;;;;5015644;28;8294;-87
2022/11/09 14:51:50;;;;;;;;;;;;;;;;;;5015342;28;8647;-86
2022/11/09 14:54:18;;;;;;;;;;;;;;;;;;5014935;28;7426;-86
2022/11/09 14:56:45;;;;;;;;;;;;;;;;;;5015809;28;7275;-88
2022/11/09 14:59:16;;;;;;;;;;;;;;;;;;5011696;28;7181;-88
2022/11/09 15:01:55;;;;;;;;;;;;;;;;;;5014863;28;7174;-87
2022/11/09 15:04:25;;;;;;;;;;;;;;;;;;5015382;28;8659;-86
2022/11/09 15:06:54;;;;;;;;;;;;;;;;;;5015252;28;7065;-87
2022/11/09 15:09:22;;;;;;;;;;;;;;;;;;5011223;28;7466;-87
2022/11/09 15:11:49;;;;;;;;;;;;;;;;;;5009770;28;8625;-87
2022/11/09 15:14:14;;;;;;;;;;;;;;;;;;5007500;28;8568;-87
2022/11/09 15:16:40;;;;;;;;;;;;;;;;;;5015073;28;8659;-87
2022/11/09 15:19:19;;;;;;;;;;;;;;;;;;5015294;28;7143;-86
2022/11/09 15:21:44;;;;;;;;;;;;;;;;;;5015339;28;8455;-87
2022/11/09 15:24:14;;;;;;;;;;;;;;;;;;5015043;28;7159;-87
2022/11/09 15:26:42;;;;;;;;;;;;;;;;;;5015085;28;7183;-87
2022/11/09 15:29:40;;;;;;;;;;;;;;;;;;5014788;28;8545;-87
2022/11/09 15:32:09;;;;;;;;;;;;;;;;;;4972334;28;7147;-88
2022/11/09 15:34:36;;;;;;;;;;;;;;;;;;5014681;28;7079;-87
2022/11/09 15:37:03;;;;;;;;;;;;;;;;;;5015364;28;8474;-86
2022/11/09 15:39:29;;;;;;;;;;;;;;;;;;5014943;28;7494;-82
2022/11/09 15:41:56;;;;;;;;;;;;;;;;;;5015246;28;8686;-87
2022/11/09 15:44:21;;;;;;;;;;;;;;;;;;5015370;28;7107;-87
2022/11/09 15:46:50;;;;;;;;;;;;;;;;;;5015928;28;8700;-84
2022/11/09 15:49:27;;;;;;;;;;;;;;;;;;5015518;28;8791;-87
2022/11/09 15:51:53;;;;;;;;;;;;;;;;;;5016279;28;7041;-86
2022/11/09 15:54:20;;;;;;;;;;;;;;;;;;5014980;28;8515;-86
2022/11/09 15:56:45;;;;;;;;;;;;;;;;;;5015011;28;8416;-87
2022/11/09 15:59:15;;;;;;;;;;;;;;;;;;5014821;28;8433;-87
2022/11/09 16:01:41;;;;;;;;;;;;;;;;;;5013734;28;7449;-86
2022/11/09 16:04:06;;;;;;;;;;;;;;;;;;5010501;28;8324;-87
2022/11/09 16:06:31;;;;;;;;;;;;;;;;;;5006918;28;7047;-87
2022/11/09 16:08:57;;;;;;;;;;;;;;;;;;4997953;28;8434;-87
2022/11/09 16:11:22;;;;;;;;;;;;;;;;;;5012745;28;7174;-87
2022/11/09 16:13:48;;;;;;;;;;;;;;;;;;5013122;28;7098;-87
2022/11/09 16:16:14;;;;;;;;;;;;;;;;;;5014123;28;8288;-86
2022/11/09 16:18:40;;;;;;;;;;;;;;;;;;5013741;28;7041;-86
2022/11/09 16:21:06;;;;;;;;;;;;;;;;;;5014416;28;7034;-87
2022/11/09 16:23:32;;;;;;;;;;;;;;;;;;5013385;28;8758;-87
2022/11/09 16:25:58;;;;;;;;;;;;;;;;;;5014038;28;8500;-87
2022/11/09 16:28:24;;;;;;;;;;;;;;;;;;5011211;28;7370;-87
2022/11/09 16:30:49;;;;;;;;;;;;;;;;;;5013343;28;8442;-87
2022/11/09 16:33:14;;;;;;;;;;;;;;;;;;5002269;28;8419;-87
2022/11/09 16:35:40;;;;;;;;;;;;;;;;;;5011980;28;8449;-87
2022/11/09 16:38:05;;;;;;;;;;;;;;;;;;5013844;28;8703;-87
2022/11/09 16:40:31;;;;;;;;;;;;;;;;;;5030449;28;9746;-88
2022/11/09 16:42:59;;;;;;;;;;;;;;;;;;5013949;28;7440;-87
2022/11/09 16:45:24;;;;;;;;;;;;;;;;;;5013896;28;8907;-87
2022/11/09 16:47:55;;;;;;;;;;;;;;;;;;5029651;28;7163;-87
2022/11/09 16:50:21;;;;;;;;;;;;;;;;;;5013843;28;7345;-87
2022/11/09 16:52:47;;;;;;;;;;;;;;;;;;5026824;28;8606;-87
2022/11/09 16:55:12;;;;;;;;;;;;;;;;;;5012786;28;7194;-87
2022/11/09 16:57:38;;;;;;;;;;;;;;;;;;5009503;28;8627;-88
2022/11/09 17:00:05;;;;;;;;;;;;;;;;;;5006362;28;8637;-87
2022/11/09 17:02:31;;;;;;;;;;;;;;;;;;5006714;28;8795;-88
2022/11/09 17:04:56;;;;;;;;;;;;;;;;;;5013393;28;8443;-86
2022/11/09 17:07:21;;;;;;;;;;;;;;;;;;5012806;28;8537;-84
2022/11/09 17:09:47;;;;;;;;;;;;;;;;;;5013229;28;8504;-87
2022/11/09 17:12:13;;;;;;;;;;;;;;;;;;5013395;28;8405;-87
2022/11/09 17:14:39;;;;;;;;;;;;;;;;;;5015643;28;8413;-88